createdAt,value
2017-09-26T00:00:28.682Z,69.17
2017-09-26T00:01:28.603Z,69.54
2017-09-26T00:02:28.538Z,69.45
2017-09-26T00:03:28.444Z,69.35
2017-09-26T00:04:28.360Z,69.54
2017-09-26T00:05:28.284Z,69.68
2017-09-26T00:06:28.205Z,69.58
2017-09-26T00:07:28.120Z,69.10
2017-09-26T00:08:28.039Z,69.29
2017-09-26T00:09:27.964Z,69.93
2017-09-26T00:10:27.880Z,69.74
2017-09-26T00:11:27.795Z,69.93
2017-09-26T00:12:27.716Z,69.54
2017-09-26T00:13:27.646Z,70.03
2017-09-26T00:14:27.559Z,69.83
2017-09-26T00:15:27.478Z,69.74
2017-09-26T00:16:27.402Z,69.54
2017-09-26T00:17:27.316Z,69.54
2017-09-26T00:18:27.427Z,69.07
2017-09-26T00:19:27.157Z,69.64
2017-09-26T00:20:27.082Z,69.64
2017-09-26T00:21:26.997Z,69.39
2017-09-26T00:22:26.916Z,69.83
2017-09-26T00:23:26.840Z,69.74
2017-09-26T00:24:26.753Z,69.64
2017-09-26T00:25:26.673Z,70.03
2017-09-26T00:26:26.599Z,69.26
2017-09-26T00:27:26.518Z,68.87
2017-09-26T00:28:26.437Z,69.64
2017-09-26T00:29:26.352Z,69.93
2017-09-26T00:30:26.287Z,69.93
2017-09-26T00:31:26.189Z,70.21
2017-09-26T00:32:26.109Z,70.41
2017-09-26T00:33:26.027Z,70.12
2017-09-26T00:34:25.959Z,70.18
2017-09-26T00:35:25.866Z,70.28
2017-09-26T00:36:25.791Z,69.93
2017-09-26T00:37:25.741Z,69.64
2017-09-26T00:38:25.635Z,70.28
2017-09-26T00:39:25.542Z,69.99
2017-09-26T00:40:25.461Z,70.66
2017-09-26T00:41:25.385Z,70.85
2017-09-26T00:42:25.308Z,70.28
2017-09-26T00:43:25.224Z,69.99
2017-09-26T00:44:25.141Z,70.12
2017-09-26T00:45:25.064Z,70.47
2017-09-26T00:46:24.977Z,70.76
2017-09-26T00:47:24.897Z,71.04
2017-09-26T00:48:24.820Z,71.23
2017-09-26T00:49:24.733Z,71.71
2017-09-26T00:50:24.655Z,71.42
2017-09-26T00:51:24.575Z,71.62
2017-09-26T00:52:24.498Z,71.71
2017-09-26T00:53:24.438Z,71.33
2017-09-26T00:54:24.329Z,71.42
2017-09-26T00:55:24.282Z,71.42
2017-09-26T00:56:24.183Z,70.76
2017-09-26T00:57:24.086Z,71.04
2017-09-26T00:58:24.002Z,71.52
2017-09-26T00:59:23.940Z,71.04
2017-09-26T01:00:23.845Z,71.33
2017-09-26T01:01:23.766Z,70.95
2017-09-26T01:02:23.721Z,71.52
2017-09-26T01:03:23.636Z,71.33
2017-09-26T01:04:23.520Z,71.62
2017-09-26T01:05:23.440Z,71.33
2017-09-26T01:06:23.369Z,71.81
2017-09-26T01:07:23.284Z,71.71
2017-09-26T01:08:23.210Z,71.23
2017-09-26T01:09:23.154Z,71.52
2017-09-26T01:10:23.057Z,70.85
2017-09-26T01:11:22.954Z,70.66
2017-09-26T01:12:22.877Z,70.41
2017-09-26T01:13:22.811Z,70.37
2017-09-26T01:14:22.715Z,70.95
2017-09-26T01:15:22.642Z,70.66
2017-09-26T01:16:22.552Z,70.56
2017-09-26T01:17:22.484Z,71.33
2017-09-26T01:18:22.390Z,71.52
2017-09-26T01:19:22.324Z,71.33
2017-09-26T01:20:22.256Z,71.23
2017-09-26T01:21:22.151Z,71.33
2017-09-26T01:22:22.068Z,71.33
2017-09-26T01:23:21.994Z,70.47
2017-09-26T01:24:21.912Z,70.76
2017-09-26T01:25:21.823Z,70.85
2017-09-26T01:26:21.751Z,70.66
2017-09-26T01:27:21.691Z,71.52
2017-09-26T01:28:21.584Z,70.95
2017-09-26T01:29:21.502Z,70.95
2017-09-26T01:30:21.458Z,70.37
2017-09-26T01:31:21.348Z,70.95
2017-09-26T01:32:21.261Z,71.04
2017-09-26T01:33:21.183Z,71.30
2017-09-26T01:34:21.104Z,71.58
2017-09-26T01:35:21.020Z,71.62
2017-09-26T01:36:20.944Z,71.42
2017-09-26T01:37:20.857Z,71.52
2017-09-26T01:38:20.781Z,71.14
2017-09-26T01:39:20.726Z,70.91
2017-09-26T01:40:20.615Z,71.58
2017-09-26T01:41:20.540Z,71.68
2017-09-26T01:42:20.454Z,71.14
2017-09-26T01:43:20.373Z,70.47
2017-09-26T01:44:20.289Z,70.72
2017-09-26T01:45:20.214Z,70.85
2017-09-26T01:46:20.129Z,71.01
2017-09-26T01:47:20.050Z,71.20
2017-09-26T01:48:19.969Z,70.72
2017-09-26T01:49:19.888Z,70.09
2017-09-26T01:50:19.807Z,70.18
2017-09-26T01:51:19.728Z,70.09
2017-09-26T01:52:19.645Z,69.80
2017-09-26T01:53:19.564Z,70.72
2017-09-26T01:54:19.485Z,70.62
2017-09-26T01:55:19.400Z,70.62
2017-09-26T01:56:19.322Z,71.58
2017-09-26T01:57:19.239Z,71.20
2017-09-26T01:58:19.157Z,71.39
2017-09-26T01:59:19.081Z,71.20
2017-09-26T02:00:19.005Z,70.81
2017-09-26T02:01:18.918Z,70.81
2017-09-26T02:02:18.840Z,70.72
2017-09-26T02:03:18.762Z,71.11
2017-09-26T02:04:18.684Z,70.72
2017-09-26T02:05:18.598Z,71.48
2017-09-26T02:06:18.514Z,71.30
2017-09-26T02:07:18.432Z,71.20
2017-09-26T02:08:18.348Z,71.39
2017-09-26T02:09:18.297Z,71.58
2017-09-26T02:10:18.187Z,70.91
2017-09-26T02:11:18.105Z,70.91
2017-09-26T02:12:18.146Z,70.78
2017-09-26T02:13:17.948Z,71.20
2017-09-26T02:14:17.863Z,71.39
2017-09-26T02:15:17.785Z,71.48
2017-09-26T02:16:17.698Z,71.45
2017-09-26T02:17:17.620Z,71.48
2017-09-26T02:18:17.543Z,71.01
2017-09-26T02:19:17.456Z,71.58
2017-09-26T02:20:17.379Z,71.45
2017-09-26T02:21:17.295Z,71.11
2017-09-26T02:22:17.225Z,70.97
2017-09-26T02:23:17.133Z,71.26
2017-09-26T02:24:17.070Z,71.20
2017-09-26T02:25:16.969Z,71.30
2017-09-26T02:26:16.888Z,70.81
2017-09-26T02:27:16.807Z,71.36
2017-09-26T02:28:16.725Z,71.48
2017-09-26T02:29:16.642Z,70.72
2017-09-26T02:30:16.585Z,70.97
2017-09-26T02:31:16.514Z,71.07
2017-09-26T02:32:16.435Z,71.07
2017-09-26T02:33:16.314Z,70.68
2017-09-26T02:34:16.237Z,70.68
2017-09-26T02:35:16.157Z,71.26
2017-09-26T02:36:16.073Z,71.30
2017-09-26T02:37:16.000Z,70.81
2017-09-26T02:38:15.914Z,70.72
2017-09-26T02:39:15.847Z,70.50
2017-09-26T02:40:15.752Z,71.36
2017-09-26T02:41:15.680Z,70.68
2017-09-26T02:42:15.596Z,70.91
2017-09-26T02:43:15.511Z,70.91
2017-09-26T02:44:15.430Z,70.78
2017-09-26T02:45:15.344Z,71.26
2017-09-26T02:46:15.267Z,70.97
2017-09-26T02:47:15.184Z,71.55
2017-09-26T02:48:15.095Z,70.97
2017-09-26T02:49:15.030Z,71.07
2017-09-26T02:50:14.935Z,70.59
2017-09-26T02:51:14.865Z,70.87
2017-09-26T02:52:14.773Z,70.87
2017-09-26T02:53:14.698Z,71.93
2017-09-26T02:54:14.608Z,72.02
2017-09-26T02:55:14.531Z,71.83
2017-09-26T02:56:14.443Z,71.83
2017-09-26T02:57:14.371Z,71.93
2017-09-26T02:58:14.281Z,71.93
2017-09-26T02:59:14.204Z,71.45
2017-09-26T03:00:14.121Z,71.55
2017-09-26T03:01:14.041Z,71.07
2017-09-26T03:02:13.957Z,71.07
2017-09-26T03:03:13.887Z,71.83
2017-09-26T03:04:13.793Z,71.83
2017-09-26T03:05:13.712Z,71.73
2017-09-26T03:06:13.638Z,71.45
2017-09-26T03:07:13.547Z,72.02
2017-09-26T03:08:13.474Z,72.60
2017-09-26T03:09:13.385Z,72.02
2017-09-26T03:10:13.306Z,72.02
2017-09-26T03:11:13.223Z,71.36
2017-09-26T03:12:13.147Z,71.07
2017-09-26T03:13:13.057Z,70.87
2017-09-26T03:14:12.979Z,70.40
2017-09-26T03:15:12.912Z,70.40
2017-09-26T03:16:12.815Z,70.78
2017-09-26T03:17:12.734Z,70.40
2017-09-26T03:18:12.653Z,71.16
2017-09-26T03:19:12.576Z,70.97
2017-09-26T03:20:12.490Z,71.36
2017-09-26T03:21:12.406Z,71.16
2017-09-26T03:22:12.326Z,70.59
2017-09-26T03:23:12.251Z,70.40
2017-09-26T03:24:12.163Z,70.21
2017-09-26T03:25:12.087Z,70.30
2017-09-26T03:26:12.002Z,70.78
2017-09-26T03:27:11.919Z,70.87
2017-09-26T03:28:11.836Z,70.78
2017-09-26T03:29:11.760Z,70.40
2017-09-26T03:30:11.685Z,70.01
2017-09-26T03:31:11.597Z,69.92
2017-09-26T03:32:11.518Z,70.11
2017-09-26T03:33:11.431Z,70.30
2017-09-26T03:34:11.346Z,69.92
2017-09-26T03:35:11.268Z,70.75
2017-09-26T03:36:11.189Z,70.97
2017-09-26T03:37:11.109Z,70.87
2017-09-26T03:38:11.024Z,70.40
2017-09-26T03:39:10.940Z,70.56
2017-09-26T03:40:10.859Z,70.46
2017-09-26T03:41:10.777Z,70.94
2017-09-26T03:42:10.715Z,70.46
2017-09-26T03:43:10.619Z,70.97
2017-09-26T03:44:10.535Z,70.68
2017-09-26T03:45:10.458Z,69.82
2017-09-26T03:46:10.379Z,69.82
2017-09-26T03:47:10.293Z,69.73
2017-09-26T03:48:10.220Z,70.36
2017-09-26T03:49:10.132Z,70.36
2017-09-26T03:50:10.049Z,70.75
2017-09-26T03:51:09.968Z,71.42
2017-09-26T03:52:09.906Z,70.17
2017-09-26T03:53:09.808Z,69.73
2017-09-26T03:54:09.714Z,70.11
2017-09-26T03:55:09.640Z,69.89
2017-09-26T03:56:09.556Z,70.07
2017-09-26T03:57:09.474Z,70.84
2017-09-26T03:58:09.394Z,70.17
2017-09-26T03:59:09.312Z,70.21
2017-09-26T04:00:09.232Z,69.98
2017-09-26T04:01:09.145Z,69.64
2017-09-26T04:02:09.063Z,69.73
2017-09-26T04:03:09.001Z,69.79
2017-09-26T04:04:08.898Z,70.56
2017-09-26T04:05:08.819Z,70.75
2017-09-26T04:06:08.737Z,70.65
2017-09-26T04:07:08.656Z,70.46
2017-09-26T04:08:08.593Z,70.75
2017-09-26T04:09:08.523Z,70.65
2017-09-26T04:10:08.410Z,70.27
2017-09-26T04:11:08.331Z,70.27
2017-09-26T04:12:08.255Z,69.60
2017-09-26T04:13:08.160Z,70.17
2017-09-26T04:14:08.084Z,70.56
2017-09-26T04:15:07.999Z,70.07
2017-09-26T04:16:07.920Z,69.98
2017-09-26T04:17:07.834Z,70.65
2017-09-26T04:18:07.757Z,70.56
2017-09-26T04:19:07.672Z,70.75
2017-09-26T04:20:07.592Z,70.84
2017-09-26T04:21:07.509Z,70.56
2017-09-26T04:22:07.428Z,70.75
2017-09-26T04:23:07.347Z,70.46
2017-09-26T04:24:07.261Z,70.07
2017-09-26T04:25:07.181Z,69.79
2017-09-26T04:26:07.099Z,69.70
2017-09-26T04:27:07.018Z,70.36
2017-09-26T04:28:06.961Z,70.56
2017-09-26T04:29:06.893Z,70.84
2017-09-26T04:30:06.771Z,71.42
2017-09-26T04:31:06.688Z,70.46
2017-09-26T04:32:06.608Z,70.65
2017-09-26T04:33:06.525Z,71.22
2017-09-26T04:34:06.442Z,70.75
2017-09-26T04:35:06.361Z,70.56
2017-09-26T04:36:06.278Z,70.56
2017-09-26T04:37:06.196Z,70.84
2017-09-26T04:38:06.119Z,70.65
2017-09-26T04:39:06.030Z,71.13
2017-09-26T04:40:05.949Z,70.75
2017-09-26T04:41:05.896Z,71.03
2017-09-26T04:42:05.795Z,70.84
2017-09-26T04:43:05.710Z,71.51
2017-09-26T04:44:05.630Z,70.84
2017-09-26T04:45:05.543Z,70.75
2017-09-26T04:46:05.468Z,71.03
2017-09-26T04:47:05.378Z,71.22
2017-09-26T04:48:05.303Z,71.28
2017-09-26T04:49:05.212Z,71.51
2017-09-26T04:50:05.182Z,71.57
2017-09-26T04:51:05.051Z,71.76
2017-09-26T04:52:04.967Z,71.57
2017-09-26T04:53:04.887Z,71.67
2017-09-26T04:54:04.801Z,71.95
2017-09-26T04:55:04.721Z,71.38
2017-09-26T04:56:04.645Z,71.57
2017-09-26T04:57:04.569Z,72.24
2017-09-26T04:58:04.478Z,71.47
2017-09-26T04:59:04.400Z,71.57
2017-09-26T05:00:04.311Z,71.76
2017-09-26T05:01:04.222Z,71.86
2017-09-26T05:02:04.154Z,71.89
2017-09-26T05:03:04.063Z,71.76
2017-09-26T05:04:04.001Z,71.61
2017-09-26T05:05:03.903Z,71.76
2017-09-26T05:06:03.826Z,71.86
2017-09-26T05:07:03.740Z,71.61
2017-09-26T05:08:03.656Z,71.47
2017-09-26T05:09:03.580Z,72.05
2017-09-26T05:10:03.509Z,71.80
2017-09-26T05:11:03.406Z,71.76
2017-09-26T05:12:03.330Z,71.67
2017-09-26T05:13:03.243Z,71.22
2017-09-26T05:14:03.163Z,71.61
2017-09-26T05:15:03.087Z,71.51
2017-09-26T05:16:02.996Z,71.19
2017-09-26T05:17:02.920Z,70.94
2017-09-26T05:18:02.833Z,71.22
2017-09-26T05:19:02.756Z,71.38
2017-09-26T05:20:02.670Z,70.94
2017-09-26T05:21:02.582Z,71.51
2017-09-26T05:22:02.510Z,71.57
2017-09-26T05:23:02.423Z,71.61
2017-09-26T05:24:02.339Z,71.61
2017-09-26T05:25:02.262Z,71.03
2017-09-26T05:26:02.181Z,71.61
2017-09-26T05:27:02.092Z,72.18
2017-09-26T05:28:02.011Z,71.42
2017-09-26T05:29:01.947Z,71.57
2017-09-26T05:30:01.851Z,71.86
2017-09-26T05:31:01.767Z,71.95
2017-09-26T05:32:01.685Z,71.95
2017-09-26T05:33:01.601Z,71.38
2017-09-26T05:34:01.531Z,72.24
2017-09-26T05:35:01.445Z,72.05
2017-09-26T05:36:01.360Z,71.95
2017-09-26T05:37:01.298Z,72.33
2017-09-26T05:38:01.191Z,72.33
2017-09-26T05:39:01.110Z,71.86
2017-09-26T05:40:01.031Z,72.33
2017-09-26T05:41:00.970Z,72.62
2017-09-26T05:42:00.869Z,72.62
2017-09-26T05:43:00.778Z,72.72
2017-09-26T05:44:00.699Z,72.43
2017-09-26T05:45:00.630Z,72.62
2017-09-26T05:46:00.536Z,73.19
2017-09-26T05:47:00.456Z,73.19
2017-09-26T05:48:00.382Z,73.19
2017-09-26T05:49:00.288Z,73.39
2017-09-26T05:50:00.234Z,73.19
2017-09-26T05:51:00.130Z,73.00
2017-09-26T05:52:00.043Z,72.66
2017-09-26T05:52:59.961Z,71.89
2017-09-26T05:53:59.887Z,71.13
2017-09-26T05:54:59.798Z,71.22
2017-09-26T05:55:59.712Z,71.70
2017-09-26T05:56:59.631Z,71.89
2017-09-26T05:57:59.564Z,71.80
2017-09-26T05:58:59.472Z,72.47
2017-09-26T05:59:59.386Z,72.62
2017-09-26T06:00:59.317Z,73.58
2017-09-26T06:01:59.222Z,73.10
2017-09-26T06:02:59.150Z,74.30
2017-09-26T06:03:59.054Z,75.16
2017-09-26T06:04:58.976Z,75.20
2017-09-26T06:05:58.895Z,74.24
2017-09-26T06:06:58.810Z,73.48
2017-09-26T06:07:58.728Z,73.96
2017-09-26T06:08:58.645Z,74.34
2017-09-26T06:09:58.563Z,73.77
2017-09-26T06:10:58.495Z,73.58
2017-09-26T06:11:58.403Z,73.77
2017-09-26T06:12:58.318Z,73.67
2017-09-26T06:13:58.237Z,74.05
2017-09-26T06:14:58.156Z,73.77
2017-09-26T06:15:58.075Z,73.67
2017-09-26T06:16:57.991Z,74.24
2017-09-26T06:17:57.912Z,75.01
2017-09-26T06:18:57.840Z,74.91
2017-09-26T06:19:57.743Z,74.82
2017-09-26T06:20:57.663Z,74.44
2017-09-26T06:21:57.587Z,74.73
2017-09-26T06:22:57.505Z,74.63
2017-09-26T06:23:57.418Z,74.63
2017-09-26T06:24:57.332Z,74.76
2017-09-26T06:25:57.254Z,73.99
2017-09-26T06:26:57.175Z,73.80
2017-09-26T06:27:57.102Z,74.91
2017-09-26T06:28:57.033Z,74.76
2017-09-26T06:29:56.923Z,74.44
2017-09-26T06:30:56.847Z,74.91
2017-09-26T06:31:56.759Z,74.91
2017-09-26T06:32:56.679Z,74.53
2017-09-26T06:33:56.619Z,74.85
2017-09-26T06:34:56.530Z,74.63
2017-09-26T06:35:56.434Z,74.85
2017-09-26T06:36:56.346Z,74.57
2017-09-26T06:37:56.267Z,74.09
2017-09-26T06:38:56.183Z,74.38
2017-09-26T06:39:56.102Z,74.38
2017-09-26T06:40:56.021Z,74.48
2017-09-26T06:41:55.948Z,74.09
2017-09-26T06:42:55.860Z,73.52
2017-09-26T06:43:55.795Z,73.80
2017-09-26T06:44:55.692Z,73.90
2017-09-26T06:45:55.613Z,73.14
2017-09-26T06:46:55.533Z,73.43
2017-09-26T06:47:55.453Z,73.04
2017-09-26T06:48:55.365Z,74.48
2017-09-26T06:49:55.303Z,74.38
2017-09-26T06:50:55.200Z,74.28
2017-09-26T06:51:55.123Z,74.66
2017-09-26T06:52:55.037Z,74.66
2017-09-26T06:53:54.958Z,74.38
2017-09-26T06:54:54.883Z,74.66
2017-09-26T06:55:54.794Z,74.76
2017-09-26T06:56:54.727Z,74.76
2017-09-26T06:57:54.631Z,74.41
2017-09-26T06:58:54.548Z,74.22
2017-09-26T06:59:54.467Z,73.36
2017-09-26T07:00:54.387Z,73.75
2017-09-26T07:01:54.302Z,73.27
2017-09-26T07:02:54.225Z,73.27
2017-09-26T07:03:54.147Z,73.36
2017-09-26T07:04:54.060Z,73.36
2017-09-26T07:05:53.979Z,73.55
2017-09-26T07:06:53.896Z,73.94
2017-09-26T07:07:53.812Z,74.22
2017-09-26T07:08:53.734Z,74.61
2017-09-26T07:09:53.690Z,74.95
2017-09-26T07:10:53.586Z,75.71
2017-09-26T07:11:53.487Z,75.18
2017-09-26T07:12:53.407Z,74.76
2017-09-26T07:13:53.332Z,75.34
2017-09-26T07:14:53.246Z,74.85
2017-09-26T07:15:53.170Z,75.81
2017-09-26T07:16:53.083Z,75.24
2017-09-26T07:17:53.003Z,74.41
2017-09-26T07:18:52.921Z,74.80
2017-09-26T07:19:52.847Z,74.80
2017-09-26T07:20:52.790Z,74.51
2017-09-26T07:21:52.670Z,73.75
2017-09-26T07:22:52.592Z,73.33
2017-09-26T07:23:52.512Z,74.70
2017-09-26T07:24:52.430Z,73.75
2017-09-26T07:25:52.349Z,73.84
2017-09-26T07:26:52.270Z,73.55
2017-09-26T07:27:52.183Z,73.21
2017-09-26T07:28:52.103Z,72.69
2017-09-26T07:29:52.023Z,72.25
2017-09-26T07:30:51.941Z,72.54
2017-09-26T07:31:51.856Z,72.83
2017-09-26T07:32:51.773Z,72.98
2017-09-26T07:33:51.697Z,73.11
2017-09-26T07:34:51.612Z,73.17
2017-09-26T07:35:51.551Z,73.36
2017-09-26T07:36:51.449Z,73.02
2017-09-26T07:37:51.382Z,72.73
2017-09-26T07:38:51.293Z,72.54
2017-09-26T07:39:51.205Z,73.11
2017-09-26T07:40:51.130Z,71.77
2017-09-26T07:41:51.077Z,72.06
2017-09-26T07:42:50.962Z,71.87
2017-09-26T07:43:50.884Z,72.44
2017-09-26T07:44:50.808Z,73.30
2017-09-26T07:45:50.721Z,73.40
2017-09-26T07:46:50.639Z,72.73
2017-09-26T07:47:50.561Z,72.19
2017-09-26T07:48:50.486Z,72.73
2017-09-26T07:49:50.404Z,73.17
2017-09-26T07:50:50.328Z,73.59
2017-09-26T07:51:50.239Z,74.80
2017-09-26T07:52:50.168Z,74.22
2017-09-26T07:53:50.082Z,73.88
2017-09-26T07:54:50.004Z,73.50
2017-09-26T07:55:49.927Z,74.07
2017-09-26T07:56:49.835Z,73.05
2017-09-26T07:57:49.770Z,72.96
2017-09-26T07:58:49.682Z,72.29
2017-09-26T07:59:49.593Z,71.81
2017-09-26T08:00:49.512Z,71.84
2017-09-26T08:01:49.440Z,71.66
2017-09-26T08:02:49.352Z,71.91
2017-09-26T08:03:49.303Z,72.48
2017-09-26T08:04:49.196Z,72.29
2017-09-26T08:05:49.120Z,73.34
2017-09-26T08:06:49.034Z,73.44
2017-09-26T08:07:48.951Z,72.42
2017-09-26T08:08:48.870Z,71.78
2017-09-26T08:09:48.791Z,71.25
2017-09-26T08:10:48.716Z,70.06
2017-09-26T08:11:48.635Z,70.83
2017-09-26T08:12:48.555Z,70.15
2017-09-26T08:13:48.476Z,70.98
2017-09-26T08:14:48.397Z,70.73
2017-09-26T08:15:48.324Z,70.19
2017-09-26T08:16:48.239Z,68.98
2017-09-26T08:17:48.164Z,67.00
2017-09-26T08:18:48.078Z,66.36
2017-09-26T08:19:48.003Z,66.16
2017-09-26T08:20:47.929Z,66.00
2017-09-26T08:21:47.847Z,64.85
2017-09-26T08:22:47.774Z,65.05
2017-09-26T08:23:47.699Z,63.99
2017-09-26T08:24:47.620Z,64.47
2017-09-26T08:25:47.543Z,64.85
2017-09-26T08:26:47.458Z,65.97
2017-09-26T08:27:47.377Z,65.78
2017-09-26T08:28:47.305Z,66.42
2017-09-26T08:29:47.225Z,67.44
2017-09-26T08:30:47.151Z,67.25
2017-09-26T08:31:47.070Z,68.05
2017-09-26T08:32:46.990Z,67.19
2017-09-26T08:33:46.908Z,67.76
2017-09-26T08:34:46.834Z,67.38
2017-09-26T08:35:46.760Z,68.44
2017-09-26T08:36:46.680Z,67.92
2017-09-26T08:37:46.599Z,68.05
2017-09-26T08:38:46.517Z,67.57
2017-09-26T08:39:46.440Z,67.47
2017-09-26T08:40:46.363Z,67.13
2017-09-26T08:41:46.312Z,67.13
2017-09-26T08:42:46.211Z,66.74
2017-09-26T08:43:46.127Z,67.32
2017-09-26T08:44:46.053Z,67.80
2017-09-26T08:45:45.994Z,66.93
2017-09-26T08:46:45.896Z,67.16
2017-09-26T08:47:45.817Z,66.39
2017-09-26T08:48:45.740Z,66.30
2017-09-26T08:49:45.660Z,66.20
2017-09-26T08:50:45.620Z,66.07
2017-09-26T08:51:45.516Z,66.20
2017-09-26T08:52:45.430Z,66.55
2017-09-26T08:53:45.352Z,66.16
2017-09-26T08:54:45.282Z,66.00
2017-09-26T08:55:45.195Z,64.40
2017-09-26T08:56:45.117Z,64.53
2017-09-26T08:57:45.096Z,62.80
2017-09-26T08:58:45.019Z,62.06
2017-09-26T08:59:44.901Z,62.38
2017-09-26T09:00:44.817Z,60.55
2017-09-26T09:01:44.737Z,61.71
2017-09-26T09:02:44.662Z,60.68
2017-09-26T09:03:44.591Z,59.81
2017-09-26T09:04:44.511Z,59.94
2017-09-26T09:05:44.435Z,59.07
2017-09-26T09:06:44.359Z,59.17
2017-09-26T09:07:44.286Z,59.00
2017-09-26T09:08:44.208Z,58.14
2017-09-26T09:09:44.136Z,58.69
2017-09-26T09:10:44.062Z,59.07
2017-09-26T09:11:43.986Z,59.72
2017-09-26T09:12:43.912Z,59.91
2017-09-26T09:13:43.839Z,61.04
2017-09-26T09:14:43.769Z,60.65
2017-09-26T09:15:43.686Z,61.71
2017-09-26T09:16:43.608Z,61.29
2017-09-26T09:17:43.533Z,61.19
2017-09-26T09:18:43.459Z,61.22
2017-09-26T09:19:43.391Z,61.29
2017-09-26T09:20:43.313Z,61.29
2017-09-26T09:21:43.239Z,62.16
2017-09-26T09:22:43.159Z,62.35
2017-09-26T09:23:43.082Z,62.35
2017-09-26T09:24:43.010Z,61.97
2017-09-26T09:25:42.942Z,61.52
2017-09-26T09:26:42.862Z,60.77
2017-09-26T09:27:42.786Z,60.77
2017-09-26T09:28:42.706Z,61.00
2017-09-26T09:29:42.649Z,59.55
2017-09-26T09:30:42.559Z,59.55
2017-09-26T09:31:42.487Z,58.81
2017-09-26T09:32:42.417Z,57.94
2017-09-26T09:33:42.336Z,57.68
2017-09-26T09:34:42.265Z,57.97
2017-09-26T09:35:42.195Z,58.07
2017-09-26T09:36:42.118Z,57.01
2017-09-26T09:37:42.044Z,57.20
2017-09-26T09:38:41.970Z,56.43
2017-09-26T09:39:41.896Z,56.33
2017-09-26T09:40:41.828Z,55.30
2017-09-26T09:41:41.754Z,55.98
2017-09-26T09:42:41.681Z,54.69
2017-09-26T09:43:41.609Z,55.94
2017-09-26T09:44:41.535Z,55.40
2017-09-26T09:45:41.464Z,54.82
2017-09-26T09:46:41.399Z,54.05
2017-09-26T09:47:41.321Z,55.15
2017-09-26T09:48:41.250Z,55.46
2017-09-26T09:49:41.181Z,55.49
2017-09-26T09:50:41.108Z,54.75
2017-09-26T09:51:41.066Z,54.39
2017-09-26T09:52:40.964Z,53.91
2017-09-26T09:53:40.898Z,53.81
2017-09-26T09:54:40.822Z,52.77
2017-09-26T09:55:40.757Z,52.33
2017-09-26T09:56:40.689Z,53.91
2017-09-26T09:57:40.627Z,53.33
2017-09-26T09:58:40.546Z,51.87
2017-09-26T09:59:40.471Z,53.01
2017-09-26T10:00:40.405Z,52.91
2017-09-26T10:01:40.325Z,52.91
2017-09-26T10:02:40.258Z,52.19
2017-09-26T10:03:40.185Z,51.71
2017-09-26T10:04:40.120Z,51.71
2017-09-26T10:05:40.041Z,50.84
2017-09-26T10:06:39.975Z,50.86
2017-09-26T10:07:39.932Z,50.09
2017-09-26T10:08:39.842Z,50.57
2017-09-26T10:09:39.768Z,50.38
2017-09-26T10:10:39.702Z,49.99
2017-09-26T10:11:39.640Z,49.41
2017-09-26T10:12:39.564Z,49.54
2017-09-26T10:13:39.489Z,49.05
2017-09-26T10:14:39.418Z,49.60
2017-09-26T10:15:39.356Z,50.38
2017-09-26T10:16:39.278Z,50.02
2017-09-26T10:17:39.202Z,49.05
2017-09-26T10:18:39.138Z,49.75
2017-09-26T10:19:39.064Z,48.39
2017-09-26T10:20:39.004Z,48.81
2017-09-26T10:21:38.939Z,48.61
2017-09-26T10:22:38.862Z,48.03
2017-09-26T10:23:38.799Z,48.20
2017-09-26T10:24:38.728Z,48.90
2017-09-26T10:25:38.659Z,47.45
2017-09-26T10:26:38.591Z,47.84
2017-09-26T10:27:38.522Z,47.45
2017-09-26T10:28:38.455Z,47.36
2017-09-26T10:29:38.384Z,48.22
2017-09-26T10:30:38.321Z,47.81
2017-09-26T10:31:38.254Z,48.08
2017-09-26T10:32:38.184Z,48.57
2017-09-26T10:33:38.110Z,49.24
2017-09-26T10:34:38.046Z,50.67
2017-09-26T10:35:37.986Z,50.02
2017-09-26T10:36:37.908Z,49.05
2017-09-26T10:37:37.845Z,49.34
2017-09-26T10:38:37.769Z,49.24
2017-09-26T10:39:37.701Z,48.86
2017-09-26T10:40:37.629Z,49.63
2017-09-26T10:41:37.557Z,48.97
2017-09-26T10:42:37.486Z,48.11
2017-09-26T10:43:37.420Z,47.84
2017-09-26T10:44:37.349Z,48.22
2017-09-26T10:45:37.288Z,48.59
2017-09-26T10:46:37.206Z,48.11
2017-09-26T10:47:37.138Z,47.43
2017-09-26T10:48:37.074Z,48.57
2017-09-26T10:49:37.003Z,48.86
2017-09-26T10:50:36.933Z,49.05
2017-09-26T10:51:36.864Z,49.24
2017-09-26T10:52:36.787Z,49.15
2017-09-26T10:53:36.722Z,49.92
2017-09-26T10:54:36.666Z,50.86
2017-09-26T10:55:36.585Z,50.70
2017-09-26T10:56:36.508Z,50.21
2017-09-26T10:57:36.437Z,50.24
2017-09-26T10:58:36.378Z,49.65
2017-09-26T10:59:36.300Z,49.37
2017-09-26T11:00:36.270Z,48.90
2017-09-26T11:01:36.161Z,48.61
2017-09-26T11:02:36.097Z,47.74
2017-09-26T11:03:36.028Z,47.36
2017-09-26T11:04:35.953Z,47.38
2017-09-26T11:05:35.882Z,46.31
2017-09-26T11:06:35.830Z,46.60
2017-09-26T11:07:35.750Z,46.22
2017-09-26T11:08:35.675Z,47.11
2017-09-26T11:09:35.604Z,47.40
2017-09-26T11:10:35.538Z,48.47
2017-09-26T11:11:35.477Z,48.18
2017-09-26T11:12:35.397Z,47.42
2017-09-26T11:13:35.346Z,46.24
2017-09-26T11:14:35.266Z,45.27
2017-09-26T11:15:35.195Z,45.75
2017-09-26T11:16:35.126Z,46.04
2017-09-26T11:17:35.053Z,46.33
2017-09-26T11:18:34.991Z,46.24
2017-09-26T11:19:34.917Z,47.40
2017-09-26T11:20:34.851Z,47.02
2017-09-26T11:21:34.780Z,46.62
2017-09-26T11:22:34.720Z,46.62
2017-09-26T11:23:34.674Z,47.33
2017-09-26T11:24:34.579Z,46.45
2017-09-26T11:25:34.510Z,46.38
2017-09-26T11:26:34.445Z,46.58
2017-09-26T11:27:34.378Z,46.65
2017-09-26T11:28:34.311Z,47.30
2017-09-26T11:29:34.250Z,46.62
2017-09-26T11:30:34.182Z,47.20
2017-09-26T11:31:34.117Z,47.23
2017-09-26T11:32:34.053Z,46.65
2017-09-26T11:33:33.981Z,47.25
2017-09-26T11:34:33.921Z,46.28
2017-09-26T11:35:33.851Z,45.51
2017-09-26T11:36:33.778Z,44.15
2017-09-26T11:37:33.713Z,43.49
2017-09-26T11:38:33.651Z,42.61
2017-09-26T11:39:33.585Z,44.46
2017-09-26T11:40:33.508Z,43.68
2017-09-26T11:41:33.444Z,42.61
2017-09-26T11:42:33.371Z,44.34
2017-09-26T11:43:33.302Z,45.51
2017-09-26T11:44:33.245Z,45.68
2017-09-26T11:45:33.163Z,45.31
2017-09-26T11:46:33.094Z,44.44
2017-09-26T11:47:33.024Z,44.44
2017-09-26T11:48:32.947Z,44.46
2017-09-26T11:49:32.880Z,43.86
2017-09-26T11:50:32.816Z,44.05
2017-09-26T11:51:32.732Z,45.41
2017-09-26T11:52:32.669Z,44.44
2017-09-26T11:53:32.590Z,44.83
2017-09-26T11:54:32.527Z,44.83
2017-09-26T11:55:32.450Z,45.31
2017-09-26T11:56:32.384Z,44.54
2017-09-26T11:57:32.307Z,43.98
2017-09-26T11:58:32.237Z,44.37
2017-09-26T11:59:32.165Z,44.17
2017-09-26T12:00:32.093Z,44.05
2017-09-26T12:01:32.022Z,44.64
2017-09-26T12:02:31.951Z,44.03
2017-09-26T12:03:31.876Z,43.64
2017-09-26T12:04:31.806Z,44.32
2017-09-26T12:05:31.730Z,44.10
2017-09-26T12:06:31.662Z,45.47
2017-09-26T12:07:31.589Z,45.47
2017-09-26T12:08:31.514Z,44.68
2017-09-26T12:09:31.453Z,45.20
2017-09-26T12:10:31.377Z,45.29
2017-09-26T12:11:31.329Z,45.56
2017-09-26T12:12:31.228Z,45.07
2017-09-26T12:13:31.161Z,45.37
2017-09-26T12:14:31.824Z,45.37
2017-09-26T12:15:31.017Z,45.68
2017-09-26T12:16:30.939Z,45.85
2017-09-26T12:17:30.870Z,45.17
2017-09-26T12:18:30.795Z,45.39
2017-09-26T12:19:30.723Z,44.03
2017-09-26T12:20:30.659Z,45.48
2017-09-26T12:21:30.582Z,45.39
2017-09-26T12:22:30.522Z,44.32
2017-09-26T12:23:30.430Z,45.29
2017-09-26T12:24:30.366Z,45.39
2017-09-26T12:25:30.303Z,45.48
2017-09-26T12:26:30.214Z,45.29
2017-09-26T12:27:30.139Z,45.29
2017-09-26T12:28:30.067Z,44.78
2017-09-26T12:29:30.001Z,44.23
2017-09-26T12:30:29.926Z,44.98
2017-09-26T12:31:29.851Z,45.85
2017-09-26T12:32:29.785Z,46.16
2017-09-26T12:33:29.706Z,45.85
2017-09-26T12:34:29.631Z,46.92
2017-09-26T12:35:29.561Z,45.65
2017-09-26T12:36:29.488Z,45.17
2017-09-26T12:37:29.416Z,45.27
2017-09-26T12:38:29.344Z,45.15
2017-09-26T12:39:29.267Z,47.28
2017-09-26T12:40:29.199Z,47.36
2017-09-26T12:41:29.123Z,47.74
2017-09-26T12:42:29.053Z,47.55
2017-09-26T12:43:28.979Z,47.64
2017-09-26T12:44:28.903Z,47.96
2017-09-26T12:45:28.830Z,48.03
2017-09-26T12:46:28.758Z,47.94
2017-09-26T12:47:28.687Z,47.36
2017-09-26T12:48:28.613Z,47.94
2017-09-26T12:49:28.535Z,48.32
2017-09-26T12:50:28.463Z,48.52
2017-09-26T12:51:28.390Z,47.94